Time;durP1;ratioP1;P1;durP2;ratioP2;P2;SDS_P1;SDS_P2;PMS_P1;PMS_P2;Temp;Humidity;BMP_temperature;BMP_pressure;BME280_temperature;BME280_humidity;BME280_pressure;Samples;Min_cycle;Max_cycle;Signal;HPM_P1;HPM_P2
2021/04/12 00:00:49;;;;;;;3.40;2.20;;;4.20;99.90;;;;;;5050176;28;20214;-64
2021/04/12 00:03:20;;;;;;;7.17;2.33;;;4.10;99.90;;;;;;5048930;28;20203;-64
2021/04/12 00:05:51;;;;;;;5.30;2.70;;;4.10;99.90;;;;;;5049651;28;20211;-64
2021/04/12 00:08:25;;;;;;;4.20;2.50;;;4.20;99.90;;;;;;5059372;28;20215;-64
2021/04/12 00:10:59;;;;;;;6.60;2.80;;;4.10;99.90;;;;;;5060011;28;20218;-64
2021/04/12 00:13:35;;;;;;;7.80;3.03;;;4.10;99.90;;;;;;5031024;28;20618;-64
2021/04/12 00:16:12;;;;;;;4.37;2.80;;;4.10;99.90;;;;;;5050531;28;20753;-64
2021/04/12 00:18:43;;;;;;;4.83;2.70;;;4.10;99.90;;;;;;5045612;28;20210;-64
2021/04/12 00:21:15;;;;;;;5.03;2.87;;;4.10;99.90;;;;;;5049783;28;20203;-64
2021/04/12 00:23:45;;;;;;;3.93;3.20;;;4.00;99.90;;;;;;5045036;28;20222;-64
2021/04/12 00:26:17;;;;;;;7.10;3.20;;;4.00;99.90;;;;;;5049790;28;20594;-64
2021/04/12 00:28:46;;;;;;;5.90;2.83;;;4.10;99.90;;;;;;5049398;28;20592;-64
2021/04/12 00:31:17;;;;;;;5.97;3.20;;;4.10;99.90;;;;;;5049372;28;20214;-64
2021/04/12 00:33:48;;;;;;;5.10;3.07;;;4.00;99.90;;;;;;5047599;28;20213;-64
2021/04/12 00:36:22;;;;;;;5.40;3.10;;;4.00;99.90;;;;;;5048967;28;20230;-64
2021/04/12 00:38:57;;;;;;;4.43;3.13;;;4.10;99.90;;;;;;5049199;28;20207;-64
2021/04/12 00:42:02;;;;;;;3.77;2.80;;;4.00;99.90;;;;;;5031701;28;20234;-64
2021/04/12 00:44:55;;;;;;;4.60;3.10;;;3.90;99.90;;;;;;5047824;28;20563;-64
2021/04/12 00:47:33;;;;;;;4.70;2.93;;;3.90;99.90;;;;;;5049080;28;20623;-64
2021/04/12 00:50:19;;;;;;;5.03;3.00;;;4.00;99.90;;;;;;5047638;28;20585;-64
2021/04/12 00:53:20;;;;;;;7.43;2.90;;;3.80;99.90;;;;;;5031291;28;20203;-64
2021/04/12 00:55:50;;;;;;;3.63;2.53;;;3.90;99.90;;;;;;5048422;28;20219;-64
2021/04/12 00:58:24;;;;;;;3.10;2.40;;;3.80;99.90;;;;;;5050567;28;20210;-64
2021/04/12 01:01:03;;;;;;;2.47;2.27;;;3.80;99.90;;;;;;5047658;28;20240;-64
2021/04/12 01:03:46;;;;;;;5.10;2.57;;;3.80;99.90;;;;;;5048390;28;20206;-64
2021/04/12 01:06:22;;;;;;;8.20;3.67;;;3.80;99.90;;;;;;5048937;28;20538;-64
2021/04/12 01:09:10;;;;;;;4.53;2.97;;;3.80;99.90;;;;;;5052877;28;20575;-64
2021/04/12 01:12:13;;;;;;;4.33;2.47;;;3.70;99.90;;;;;;5050590;28;20217;-64
2021/04/12 01:15:15;;;;;;;6.10;3.00;;;3.70;99.90;;;;;;5047414;28;20223;-64
2021/04/12 01:18:03;;;;;;;4.57;2.90;;;3.70;99.90;;;;;;5046229;28;20685;-62
2021/04/12 01:21:01;;;;;;;6.37;2.30;;;3.60;99.90;;;;;;5055001;28;20206;-63
2021/04/12 01:24:07;;;;;;;4.70;2.63;;;3.70;99.90;;;;;;5033661;28;20234;-62
2021/04/12 01:27:15;;;;;;;5.23;2.50;;;3.60;99.90;;;;;;5048759;28;20207;-63
2021/04/12 01:30:19;;;;;;;4.90;3.23;;;3.60;99.90;;;;;;5045144;28;20202;-62
2021/04/12 01:33:16;;;;;;;5.07;2.67;;;3.50;99.90;;;;;;5044849;28;20810;-62
2021/04/12 01:36:19;;;;;;;5.33;2.80;;;3.60;99.90;;;;;;5049836;28;20222;-62
2021/04/12 01:38:57;;;;;;;4.40;2.80;;;3.50;99.90;;;;;;5047884;28;20548;-62
2021/04/12 01:41:40;;;;;;;6.23;3.03;;;3.50;99.90;;;;;;5043078;28;20218;-63
2021/04/12 01:44:18;;;;;;;6.70;3.03;;;3.50;99.90;;;;;;5047079;28;20207;-63
2021/04/12 01:46:57;;;;;;;6.53;3.60;;;3.40;99.90;;;;;;5047589;28;20222;-63
2021/04/12 01:49:36;;;;;;;4.13;3.40;;;3.40;99.90;;;;;;5047739;28;20685;-63
2021/04/12 01:52:23;;;;;;;5.03;3.67;;;3.50;99.90;;;;;;5044956;28;20207;-62
2021/04/12 01:55:03;;;;;;;5.70;3.30;;;3.50;99.90;;;;;;5041075;28;20705;-62
2021/04/12 01:57:46;;;;;;;6.67;3.77;;;3.50;99.90;;;;;;5047284;28;20207;-63
2021/04/12 02:00:32;;;;;;;12.00;3.87;;;3.40;99.90;;;;;;5050788;28;20221;-63
2021/04/12 02:03:04;;;;;;;7.07;3.57;;;3.50;99.90;;;;;;5047211;28;20210;-62
2021/04/12 02:06:10;;;;;;;5.23;3.40;;;3.50;99.90;;;;;;5046240;28;20246;-62
2021/04/12 02:08:47;;;;;;;5.40;3.57;;;3.50;99.90;;;;;;5041674;28;20195;-63
2021/04/12 02:11:36;;;;;;;8.60;3.53;;;3.50;99.90;;;;;;5047542;28;20842;-63
2021/04/12 02:14:18;;;;;;;8.70;3.43;;;3.50;99.90;;;;;;5045107;28;20707;-63
2021/04/12 02:16:57;;;;;;;6.57;2.97;;;3.40;99.90;;;;;;5047781;28;20207;-63
2021/04/12 02:19:39;;;;;;;5.13;3.50;;;3.40;99.90;;;;;;5048809;28;20711;-62
2021/04/12 02:22:18;;;;;;;7.33;3.50;;;3.40;99.90;;;;;;5049504;28;20297;-63
2021/04/12 02:24:54;;;;;;;7.90;3.10;;;3.40;99.90;;;;;;5044968;28;20222;-63
2021/04/12 02:27:26;;;;;;;6.33;3.47;;;3.40;99.90;;;;;;5027809;28;20206;-63
2021/04/12 02:30:02;;;;;;;4.83;2.87;;;3.30;99.90;;;;;;5044202;28;20214;-63
2021/04/12 02:32:50;;;;;;;4.53;3.03;;;3.30;99.90;;;;;;5040232;28;20225;-63
2021/04/12 02:35:31;;;;;;;4.40;2.67;;;3.30;99.90;;;;;;5046267;28;20230;-62
2021/04/12 02:38:10;;;;;;;4.47;2.70;;;3.20;99.90;;;;;;5049191;28;20611;-63
2021/04/12 02:40:53;;;;;;;4.60;2.53;;;3.20;99.90;;;;;;5048658;28;20199;-63
2021/04/12 02:43:36;;;;;;;4.80;2.87;;;3.20;99.90;;;;;;5046362;28;20198;-63
2021/04/12 02:46:20;;;;;;;8.00;2.63;;;3.20;99.90;;;;;;5048416;28;20203;-63
2021/04/12 02:48:58;;;;;;;8.20;3.03;;;3.20;99.90;;;;;;5042418;28;20661;-63
2021/04/12 02:51:53;;;;;;;6.97;2.70;;;3.20;99.90;;;;;;5042621;28;20200;-64
2021/04/12 02:54:38;;;;;;;5.77;3.27;;;3.20;99.90;;;;;;5044780;28;20249;-63
2021/04/12 02:57:40;;;;;;;6.10;2.90;;;3.20;99.90;;;;;;5050800;28;20206;-64
2021/04/12 03:00:31;;;;;;;4.93;2.30;;;3.20;99.90;;;;;;5039195;28;20202;-63
2021/04/12 03:03:24;;;;;;;7.77;2.90;;;3.20;99.90;;;;;;5043842;28;20252;-62
2021/04/12 03:06:24;;;;;;;5.10;2.80;;;3.10;99.90;;;;;;5046233;28;20199;-63
2021/04/12 03:09:13;;;;;;;3.50;2.70;;;3.10;99.90;;;;;;5006626;28;20203;-63
2021/04/12 03:11:57;;;;;;;6.23;3.57;;;3.10;99.90;;;;;;5048835;28;20672;-63
2021/04/12 03:14:54;;;;;;;5.27;2.60;;;3.00;99.90;;;;;;5047955;28;20280;-63
2021/04/12 03:17:47;;;;;;;5.93;2.90;;;3.00;99.90;;;;;;5036744;28;20206;-63
2021/04/12 03:20:45;;;;;;;5.37;2.70;;;3.10;99.90;;;;;;5049009;28;20229;-63
2021/04/12 03:23:43;;;;;;;5.70;2.70;;;3.00;99.90;;;;;;5019305;28;20214;-63
2021/04/12 03:26:26;;;;;;;4.00;2.60;;;3.00;99.90;;;;;;5038106;28;20657;-63
2021/04/12 03:29:01;;;;;;;6.33;3.30;;;3.00;99.90;;;;;;5046468;28;20194;-63
2021/04/12 03:31:44;;;;;;;4.40;2.90;;;2.90;99.90;;;;;;5044511;28;20246;-63
2021/04/12 03:34:19;;;;;;;4.40;2.90;;;2.90;99.90;;;;;;5045887;28;20206;-63
2021/04/12 03:37:18;;;;;;;6.63;2.80;;;2.80;99.90;;;;;;5046206;28;20203;-63
2021/04/12 03:39:53;;;;;;;3.93;2.67;;;2.80;99.90;;;;;;5042301;28;20532;-63
2021/04/12 03:42:52;;;;;;;6.10;2.63;;;2.80;99.90;;;;;;5048300;28;20554;-63
2021/04/12 03:45:28;;;;;;;3.67;2.77;;;2.80;99.90;;;;;;5006658;28;20219;-63
2021/04/12 03:48:35;;;;;;;8.20;2.97;;;2.90;99.90;;;;;;5045178;28;20208;-63
2021/04/12 03:51:30;;;;;;;4.40;2.60;;;2.90;99.90;;;;;;5048958;28;20214;-63
2021/04/12 03:54:23;;;;;;;5.17;2.83;;;2.80;99.90;;;;;;5045716;28;20293;-63
2021/04/12 03:57:22;;;;;;;6.93;2.43;;;2.80;99.90;;;;;;5047816;28;20201;-63
2021/04/12 04:00:04;;;;;;;5.50;2.63;;;2.80;99.90;;;;;;5039264;28;20203;-63
2021/04/12 04:02:57;;;;;;;6.07;2.90;;;2.80;99.90;;;;;;5048092;28;20661;-63
2021/04/12 04:05:43;;;;;;;4.93;2.80;;;2.80;99.90;;;;;;5049756;28;20650;-63
2021/04/12 04:08:37;;;;;;;3.83;2.60;;;2.80;99.90;;;;;;5053368;28;20207;-63
2021/04/12 04:11:36;;;;;;;7.73;3.20;;;2.80;99.90;;;;;;5054146;28;20195;-63
2021/04/12 04:14:54;;;;;;;3.50;2.93;;;2.80;99.90;;;;;;5053158;28;20237;-63
2021/04/12 04:17:43;;;;;;;5.10;2.73;;;2.90;99.90;;;;;;5052954;28;20321;-63
2021/04/12 04:20:29;;;;;;;7.13;2.97;;;2.90;99.90;;;;;;5015384;28;20206;-63
2021/04/12 04:23:07;;;;;;;5.07;2.93;;;2.80;99.90;;;;;;5038160;28;20207;-63
2021/04/12 04:25:56;;;;;;;4.00;3.17;;;2.80;99.90;;;;;;5065772;28;20200;-63
2021/04/12 04:28:50;;;;;;;6.83;3.17;;;2.80;99.90;;;;;;5052677;28;20248;-63
2021/04/12 04:31:45;;;;;;;6.07;3.70;;;2.80;99.90;;;;;;5062048;28;20226;-63
2021/04/12 04:34:28;;;;;;;5.73;3.53;;;2.80;99.90;;;;;;5033642;28;20691;-63
2021/04/12 04:37:38;;;;;;;14.50;3.93;;;2.70;99.90;;;;;;5036231;28;20671;-63
2021/04/12 04:40:18;;;;;;;5.53;3.50;;;2.80;99.90;;;;;;4996607;28;20197;-63
2021/04/12 04:43:03;;;;;;;8.40;3.83;;;2.80;99.90;;;;;;4986427;28;20706;-63
2021/04/12 04:45:52;;;;;;;8.77;3.60;;;2.70;99.90;;;;;;5029194;28;20645;-63
2021/04/12 04:48:52;;;;;;;9.50;4.10;;;2.60;99.90;;;;;;5046709;28;20214;-63
2021/04/12 04:51:40;;;;;;;6.33;3.60;;;2.60;99.90;;;;;;5035458;28;20656;-63
2021/04/12 04:54:48;;;;;;;5.50;3.40;;;2.60;99.90;;;;;;5052928;28;20199;-63
2021/04/12 04:57:30;;;;;;;5.70;3.80;;;2.70;99.90;;;;;;4995666;28;20195;-63
2021/04/12 05:00:12;;;;;;;7.47;3.60;;;2.70;99.90;;;;;;5050101;28;20195;-63
2021/04/12 05:03:14;;;;;;;5.27;3.73;;;2.70;99.90;;;;;;5053480;28;20660;-63
2021/04/12 05:05:57;;;;;;;7.07;3.80;;;2.70;99.90;;;;;;5056251;28;20190;-63
2021/04/12 05:09:02;;;;;;;9.83;4.47;;;2.70;99.90;;;;;;5053808;28;20203;-63
2021/04/12 05:11:43;;;;;;;7.10;4.73;;;2.80;99.90;;;;;;5049824;28;20205;-63
2021/04/12 05:14:47;;;;;;;11.23;4.67;;;2.80;99.90;;;;;;5052978;28;20207;-66
2021/04/12 05:17:54;;;;;;;13.63;5.50;;;2.90;99.90;;;;;;4975703;28;20212;-63
2021/04/12 05:20:59;;;;;;;6.27;4.30;;;2.90;99.90;;;;;;5045345;28;20206;-63
2021/04/12 05:23:41;;;;;;;7.57;4.67;;;2.90;99.90;;;;;;5056338;28;20202;-63
2021/04/12 05:26:29;;;;;;;6.30;4.30;;;2.90;99.90;;;;;;5053138;28;20203;-63
2021/04/12 05:29:20;;;;;;;8.43;5.00;;;2.90;99.90;;;;;;5052682;28;20654;-63
2021/04/12 05:32:07;;;;;;;7.90;4.70;;;2.90;99.90;;;;;;5052668;28;20620;-63
2021/04/12 05:34:53;;;;;;;8.20;4.80;;;2.90;99.90;;;;;;5052081;28;20278;-63
2021/04/12 05:37:34;;;;;;;9.17;5.20;;;3.00;99.90;;;;;;5052073;28;20203;-63
2021/04/12 05:40:25;;;;;;;7.07;4.50;;;3.00;99.90;;;;;;5053623;28;20233;-63
2021/04/12 05:43:12;;;;;;;7.23;4.40;;;3.10;99.90;;;;;;5048936;28;20537;-62
2021/04/12 05:46:12;;;;;;;7.10;4.53;;;3.10;99.90;;;;;;5051811;28;20203;-62
2021/04/12 05:48:58;;;;;;;9.43;4.17;;;3.20;99.90;;;;;;5049199;28;20199;-62
2021/04/12 05:51:40;;;;;;;9.27;4.07;;;3.20;99.90;;;;;;5056628;28;20649;-63
2021/04/12 05:54:25;;;;;;;8.90;4.40;;;3.10;99.90;;;;;;5048994;28;20210;-63
2021/04/12 05:57:14;;;;;;;7.67;4.43;;;3.20;99.90;;;;;;5048216;28;20561;-62
2021/04/12 06:00:16;;;;;;;7.37;4.53;;;3.30;99.90;;;;;;5052288;28;20649;-62
2021/04/12 06:02:55;;;;;;;8.23;4.37;;;3.30;99.90;;;;;;5036885;28;20297;-62
2021/04/12 06:05:27;;;;;;;6.30;3.90;;;3.30;99.90;;;;;;5054937;28;20206;-63
2021/04/12 06:08:38;;;;;;;6.47;4.23;;;3.40;99.90;;;;;;5051934;28;20348;-63
2021/04/12 06:11:26;;;;;;;8.13;4.27;;;3.40;99.90;;;;;;5050786;28;20654;-63
2021/04/12 06:14:42;;;;;;;10.00;4.03;;;3.50;99.90;;;;;;5029183;28;20279;-62
2021/04/12 06:17:47;;;;;;;10.13;4.70;;;3.50;99.90;;;;;;5055142;28;20207;-63
2021/04/12 06:20:44;;;;;;;10.80;5.87;;;3.60;99.90;;;;;;5053015;28;20209;-62
2021/04/12 06:23:42;;;;;;;9.17;5.00;;;3.70;99.90;;;;;;5050863;28;20218;-63
2021/04/12 06:26:39;;;;;;;8.60;4.20;;;3.70;99.90;;;;;;5045844;28;20210;-63
2021/04/12 06:29:31;;;;;;;12.27;5.13;;;3.90;99.90;;;;;;5051575;28;20568;-62
2021/04/12 06:32:30;;;;;;;9.07;4.60;;;3.90;99.90;;;;;;5050459;28;20222;-62
2021/04/12 06:35:36;;;;;;;7.70;4.30;;;3.90;99.90;;;;;;5035546;28;20640;-64
2021/04/12 06:38:26;;;;;;;9.30;4.33;;;3.90;99.90;;;;;;5051844;28;20194;-64
2021/04/12 06:41:27;;;;;;;17.70;4.83;;;4.00;99.90;;;;;;5048334;28;20511;-64
2021/04/12 06:44:17;;;;;;;6.80;4.10;;;4.10;99.90;;;;;;5048164;28;20194;-64
2021/04/12 06:47:08;;;;;;;6.43;4.13;;;4.30;99.90;;;;;;5049902;28;20195;-64
2021/04/12 06:50:15;;;;;;;9.07;4.07;;;4.40;99.90;;;;;;5050531;28;20230;-64
2021/04/12 06:53:11;;;;;;;8.70;4.13;;;4.60;99.90;;;;;;5047256;28;20203;-64
2021/04/12 06:56:14;;;;;;;5.47;3.80;;;4.70;99.90;;;;;;5050401;28;20218;-64
2021/04/12 06:59:18;;;;;;;7.60;3.50;;;4.80;99.90;;;;;;5011455;28;20201;-65
2021/04/12 07:02:48;;;;;;;8.73;3.83;;;4.70;99.90;;;;;;5006599;28;20202;-64
2021/04/12 07:05:34;;;;;;;6.00;3.93;;;4.80;99.90;;;;;;4951800;28;20198;-64
2021/04/12 07:08:51;;;;;;;7.37;3.97;;;5.10;99.90;;;;;;4953159;28;20277;-64
2021/04/12 07:11:55;;;;;;;6.43;4.77;;;4.90;99.90;;;;;;5046283;28;20687;-65
2021/04/12 07:15:01;;;;;;;8.70;4.17;;;5.00;99.90;;;;;;5015273;28;20207;-64
2021/04/12 07:17:56;;;;;;;7.63;4.43;;;5.00;99.90;;;;;;5050533;28;20598;-64
2021/04/12 07:20:46;;;;;;;9.47;5.20;;;5.00;99.90;;;;;;5052216;28;20213;-65
2021/04/12 07:23:45;;;;;;;9.40;3.90;;;5.00;99.90;;;;;;5049883;28;20619;-64
2021/04/12 07:26:50;;;;;;;6.70;4.03;;;5.20;99.90;;;;;;5044991;28;20613;-64
2021/04/12 07:29:49;;;;;;;6.53;3.73;;;5.60;99.90;;;;;;5049673;28;20218;-64
2021/04/12 07:32:49;;;;;;;8.23;3.17;;;6.10;99.90;;;;;;5049392;28;20673;-64
2021/04/12 07:35:34;;;;;;;7.80;3.83;;;6.70;99.90;;;;;;5049946;28;20309;-64
2021/04/12 07:38:50;;;;;;;6.87;3.37;;;6.40;99.90;;;;;;5047541;28;20210;-63
2021/04/12 07:41:54;;;;;;;9.63;3.90;;;6.40;99.90;;;;;;5048967;28;20211;-63
2021/04/12 07:44:53;;;;;;;5.40;3.27;;;6.30;99.90;;;;;;5050965;28;20206;-62
2021/04/12 07:48:20;;;;;;;9.43;3.77;;;6.90;99.90;;;;;;5036549;28;20213;-62
2021/04/12 07:51:21;;;;;;;9.03;3.20;;;7.10;99.90;;;;;;5052589;28;20210;-62
2021/04/12 07:54:28;;;;;;;7.40;3.47;;;6.30;99.90;;;;;;5051432;28;20252;-62
2021/04/12 07:57:28;;;;;;;5.87;2.47;;;6.10;99.90;;;;;;5053665;28;20632;-62
2021/04/12 08:00:25;;;;;;;5.33;2.60;;;6.10;99.90;;;;;;5055252;28;20195;-63
2021/04/12 08:03:10;;;;;;;5.93;2.97;;;6.10;99.90;;;;;;5020873;28;20512;-61
2021/04/12 08:06:27;;;;;;;8.27;2.93;;;6.10;99.90;;;;;;5053386;28;20199;-64
2021/04/12 08:09:23;;;;;;;5.47;2.30;;;6.30;99.90;;;;;;5011089;28;20212;-63
2021/04/12 08:12:43;;;;;;;8.37;3.30;;;6.30;99.90;;;;;;5007775;28;20201;-66
2021/04/12 08:15:52;;;;;;;10.43;3.30;;;6.20;99.90;;;;;;5038020;22;20253;-82
2021/04/12 08:19:00;;;;;;;6.00;3.27;;;6.50;99.90;;;;;;4995797;28;20211;-82
2021/04/12 08:21:50;;;;;;;6.80;3.83;;;6.50;99.90;;;;;;5056549;28;20221;-80
2021/04/12 08:24:43;;;;;;;5.97;2.70;;;6.90;99.90;;;;;;5034715;28;20211;-81
2021/04/12 08:27:42;;;;;;;5.90;3.30;;;6.70;99.90;;;;;;5054169;28;20896;-81
2021/04/12 08:30:44;;;;;;;5.87;3.00;;;6.50;99.90;;;;;;5053921;28;20290;-81
2021/04/12 08:33:48;;;;;;;5.30;3.13;;;6.90;99.90;;;;;;5027626;28;20248;-80
2021/04/12 08:36:55;;;;;;;5.63;3.10;;;7.40;99.90;;;;;;5056248;28;20254;-81
2021/04/12 08:39:51;;;;;;;6.23;2.33;;;7.60;99.90;;;;;;5056126;28;20207;-80
2021/04/12 08:42:53;;;;;;;8.93;2.40;;;7.40;99.90;;;;;;5040128;28;20246;-80
2021/04/12 08:45:55;;;;;;;7.33;2.73;;;7.20;99.90;;;;;;5052909;28;20198;-80
2021/04/12 08:48:49;;;;;;;3.47;2.00;;;7.50;99.90;;;;;;5058098;28;20694;-80
2021/04/12 08:51:49;;;;;;;2.37;1.63;;;7.70;99.90;;;;;;5055109;28;20211;-81
2021/04/12 08:54:43;;;;;;;6.90;1.63;;;8.20;99.90;;;;;;5035321;28;20657;-80
2021/04/12 08:57:44;;;;;;;2.10;1.50;;;8.40;99.90;;;;;;5042041;28;20257;-80
2021/04/12 09:00:44;;;;;;;5.80;1.60;;;7.70;99.90;;;;;;5053219;28;20213;-80
2021/04/12 09:04:02;;;;;;;7.63;1.30;;;7.50;99.90;;;;;;5060183;28;20262;-83
2021/04/12 09:07:04;;;;;;;2.57;1.00;;;7.60;99.90;;;;;;4987363;28;20232;-81
2021/04/12 09:10:16;;;;;;;2.70;1.47;;;8.30;99.90;;;;;;4998743;28;20212;-81
2021/04/12 09:13:18;;;;;;;2.87;1.80;;;8.60;99.90;;;;;;5060424;28;20593;-81
2021/04/12 09:16:19;;;;;;;6.13;2.33;;;9.20;99.90;;;;;;5046357;28;20638;-80
2021/04/12 09:19:33;;;;;;;5.63;1.70;;;9.30;99.90;;;;;;5002015;28;20211;-81
2021/04/12 09:22:38;;;;;;;2.23;1.20;;;8.50;99.90;;;;;;5061042;28;20265;-81
2021/04/12 09:25:49;;;;;;;1.60;0.73;;;8.20;99.90;;;;;;5055041;28;20202;-81
2021/04/12 09:28:43;;;;;;;3.83;1.13;;;9.00;99.90;;;;;;5056466;28;20207;-81
2021/04/12 09:31:59;;;;;;;5.67;1.17;;;9.70;99.90;;;;;;5058553;28;20203;-81
2021/04/12 09:35:12;;;;;;;2.90;0.87;;;10.20;99.90;;;;;;5055691;28;20315;-80
2021/04/12 09:38:15;;;;;;;2.70;0.97;;;10.20;99.90;;;;;;5057241;28;20238;-81
2021/04/12 09:41:20;;;;;;;5.97;2.33;;;9.50;99.90;;;;;;5056582;28;20930;-80
2021/04/12 09:44:23;;;;;;;2.57;1.10;;;9.70;99.90;;;;;;5040856;28;20725;-81
2021/04/12 09:47:35;;;;;;;3.60;1.13;;;9.70;99.90;;;;;;5055787;28;20211;-80
2021/04/12 09:50:57;;;;;;;4.70;1.40;;;10.80;99.90;;;;;;5049235;28;20253;-80
2021/04/12 09:54:17;;;;;;;4.20;1.10;;;10.50;99.90;;;;;;4970884;28;20835;-81
2021/04/12 09:57:15;;;;;;;4.10;1.80;;;9.90;99.90;;;;;;4970123;28;20221;-80
2021/04/12 09:59:52;;;;;;;5.47;1.70;;;9.70;99.90;;;;;;5055031;28;20264;-80
2021/04/12 10:02:55;;;;;;;3.40;1.40;;;9.70;99.90;;;;;;5058960;28;20313;-80
2021/04/12 10:05:54;;;;;;;3.23;1.03;;;9.30;99.90;;;;;;5056697;28;20249;-80
2021/04/12 10:08:28;;;;;;;3.90;1.80;;;10.10;99.90;;;;;;5021828;28;20211;-81
2021/04/12 10:11:01;;;;;;;3.40;1.53;;;10.10;99.90;;;;;;5057139;28;20206;-81
2021/04/12 10:13:35;;;;;;;3.63;1.43;;;9.20;99.90;;;;;;5059101;28;20639;-80
2021/04/12 10:16:10;;;;;;;2.53;1.53;;;8.90;99.90;;;;;;5057710;28;20249;-80
2021/04/12 10:18:45;;;;;;;4.87;1.30;;;8.60;99.90;;;;;;5055951;28;20222;-79
2021/04/12 10:21:24;;;;;;;6.03;1.40;;;8.90;99.90;;;;;;5050175;28;20199;-80
2021/04/12 10:23:53;;;;;;;4.57;1.30;;;8.80;99.90;;;;;;5055452;28;20595;-80
2021/04/12 10:26:37;;;;;;;2.87;1.10;;;8.90;99.90;;;;;;5051093;28;20295;-80
2021/04/12 10:29:09;;;;;;;5.53;1.17;;;9.00;99.90;;;;;;5055621;28;20203;-79
2021/04/12 10:31:38;;;;;;;2.17;1.30;;;9.50;99.90;;;;;;5052370;28;20227;-78
2021/04/12 10:34:15;;;;;;;3.27;1.83;;;10.00;99.90;;;;;;5049334;28;20206;-79
2021/04/12 10:36:51;;;;;;;2.53;1.30;;;9.70;99.90;;;;;;5048308;28;20701;-80
2021/04/12 10:39:27;;;;;;;4.57;1.63;;;9.20;99.90;;;;;;5053998;28;20202;-80
2021/04/12 10:42:01;;;;;;;6.07;1.73;;;9.20;99.90;;;;;;5050976;28;20336;-80
2021/04/12 10:44:34;;;;;;;3.20;1.37;;;9.00;99.90;;;;;;5057447;28;20578;-80
2021/04/12 10:47:05;;;;;;;1.20;1.10;;;9.00;99.90;;;;;;5056138;28;20301;-80
2021/04/12 10:49:48;;;;;;;3.87;1.30;;;8.90;99.90;;;;;;5055925;28;20466;-81
2021/04/12 10:52:21;;;;;;;3.87;1.30;;;9.30;99.90;;;;;;5054462;28;20232;-81
2021/04/12 10:55:04;;;;;;;3.37;1.30;;;9.00;99.90;;;;;;5054312;28;20360;-81
2021/04/12 10:57:42;;;;;;;2.73;1.00;;;9.00;99.90;;;;;;5051468;28;20664;-81
2021/04/12 11:00:37;;;;;;;2.33;1.10;;;8.70;99.90;;;;;;5054152;28;20654;-81
2021/04/12 11:03:27;;;;;;;2.90;0.90;;;8.50;99.90;;;;;;5055679;28;20282;-81
2021/04/12 11:06:09;;;;;;;2.40;1.40;;;8.60;99.90;;;;;;5019347;28;20221;-81
2021/04/12 11:08:45;;;;;;;2.00;1.00;;;9.40;99.90;;;;;;5051428;28;20622;-81
2021/04/12 11:11:17;;;;;;;2.77;1.07;;;10.00;99.90;;;;;;5054914;28;20295;-81
2021/04/12 11:13:49;;;;;;;2.33;0.90;;;9.80;99.90;;;;;;5051039;28;20483;-81
2021/04/12 11:16:20;;;;;;;2.23;1.00;;;9.90;99.90;;;;;;5053983;28;20227;-80
2021/04/12 11:19:16;;;;;;;1.43;0.97;;;9.80;99.90;;;;;;5048702;28;20249;-80
2021/04/12 11:21:52;;;;;;;1.57;0.90;;;9.30;99.90;;;;;;5050929;28;20233;-80
2021/04/12 11:24:24;;;;;;;4.63;1.20;;;9.10;99.90;;;;;;5035091;28;20217;-81
2021/04/12 11:27:20;;;;;;;2.70;1.77;;;9.10;99.90;;;;;;5052636;28;20293;-81
2021/04/12 11:30:00;;;;;;;2.90;1.20;;;9.10;99.90;;;;;;5042364;28;20214;-83
2021/04/12 11:32:34;;;;;;;3.93;1.10;;;9.00;99.90;;;;;;5047403;28;20233;-82
2021/04/12 11:35:06;;;;;;;3.73;0.93;;;8.90;99.90;;;;;;5052488;28;20213;-80
2021/04/12 11:37:44;;;;;;;3.93;1.37;;;9.30;99.90;;;;;;5049988;28;20217;-80
2021/04/12 11:40:16;;;;;;;2.37;1.23;;;9.40;99.90;;;;;;5046813;28;20290;-79
2021/04/12 11:42:50;;;;;;;3.03;0.87;;;10.00;99.90;;;;;;5052878;28;20565;-79
2021/04/12 11:45:19;;;;;;;3.47;1.20;;;10.10;99.90;;;;;;5034543;28;20291;-79
2021/04/12 11:48:00;;;;;;;1.43;1.10;;;10.10;99.90;;;;;;5052021;28;20647;-79
2021/04/12 11:50:34;;;;;;;2.03;1.03;;;10.10;99.90;;;;;;5051850;28;20203;-80
2021/04/12 11:53:14;;;;;;;5.60;1.40;;;10.30;99.90;;;;;;5049332;28;20260;-81
2021/04/12 11:55:48;;;;;;;1.97;0.97;;;10.50;99.90;;;;;;5054277;28;20229;-81
2021/04/12 11:58:17;;;;;;;2.07;0.83;;;10.60;99.90;;;;;;5038299;28;20229;-81
2021/04/12 12:00:57;;;;;;;1.50;1.10;;;11.30;99.90;;;;;;5055019;28;20336;-81
2021/04/12 12:03:40;;;;;;;2.63;1.13;;;11.40;99.90;;;;;;5054289;28;20219;-80
2021/04/12 12:06:16;;;;;;;3.83;1.20;;;11.70;99.90;;;;;;5044847;28;20252;-81
2021/04/12 12:08:58;;;;;;;2.40;1.30;;;11.70;99.90;;;;;;5049800;28;20424;-83
2021/04/12 12:11:34;;;;;;;2.70;1.07;;;11.70;99.90;;;;;;5045421;28;20324;-81
2021/04/12 12:14:10;;;;;;;2.90;1.00;;;12.20;99.90;;;;;;5040890;28;20290;-80
2021/04/12 12:16:42;;;;;;;2.93;1.10;;;11.40;99.90;;;;;;5050974;28;20227;-81
2021/04/12 12:19:22;;;;;;;3.70;1.10;;;12.20;99.90;;;;;;5049497;28;20207;-80
2021/04/12 12:21:52;;;;;;;5.13;1.40;;;12.10;99.90;;;;;;5043680;28;20215;-81
2021/04/12 12:24:26;;;;;;;2.40;1.20;;;12.00;99.90;;;;;;5052274;28;20222;-80
2021/04/12 12:27:01;;;;;;;3.50;1.10;;;12.50;99.90;;;;;;5053912;28;20215;-80
2021/04/12 12:29:31;;;;;;;1.70;1.07;;;12.10;99.90;;;;;;5057833;28;20232;-80
2021/04/12 12:32:18;;;;;;;3.63;1.00;;;11.70;99.90;;;;;;5057545;28;20223;-80
2021/04/12 12:35:00;;;;;;;2.97;1.00;;;11.50;99.90;;;;;;5058325;28;20191;-81
2021/04/12 12:37:44;;;;;;;4.70;1.60;;;11.40;99.90;;;;;;5057380;28;20222;-80
2021/04/12 12:40:16;;;;;;;2.10;1.20;;;10.80;99.90;;;;;;5051491;28;20295;-80
2021/04/12 12:42:46;;;;;;;3.03;1.23;;;10.70;99.90;;;;;;5058618;28;20314;-80
2021/04/12 12:45:17;;;;;;;4.03;1.27;;;10.30;99.90;;;;;;5051371;28;20203;-80
2021/04/12 12:47:47;;;;;;;4.63;1.80;;;9.90;99.90;;;;;;5058282;28;20294;-80
2021/04/12 12:50:21;;;;;;;1.67;1.03;;;9.60;99.90;;;;;;5054990;28;20233;-80
2021/04/12 12:52:54;;;;;;;2.43;1.23;;;9.50;99.90;;;;;;5054308;28;20223;-81
2021/04/12 12:55:25;;;;;;;1.13;0.80;;;9.40;99.90;;;;;;5047348;28;20199;-80
2021/04/12 12:57:53;;;;;;;1.23;0.97;;;9.30;99.90;;;;;;5055031;28;20286;-79
2021/04/12 13:00:33;;;;;;;1.47;0.90;;;9.20;99.90;;;;;;5057615;28;20607;-80
2021/04/12 13:03:00;;;;;;;2.70;1.00;;;9.00;99.90;;;;;;5057246;28;20258;-80
2021/04/12 13:05:31;;;;;;;1.23;0.80;;;9.10;99.90;;;;;;5057264;28;20245;-80
2021/04/12 13:08:07;;;;;;;1.27;0.67;;;8.90;99.90;;;;;;5057697;28;20694;-79
2021/04/12 13:10:37;;;;;;;1.03;1.03;;;8.70;99.90;;;;;;5057769;28;20277;-81
2021/04/12 13:13:15;;;;;;;1.40;0.60;;;8.70;99.90;;;;;;5058066;28;20245;-80
2021/04/12 13:15:43;;;;;;;0.70;0.70;;;8.40;99.90;;;;;;5058387;28;20313;-79
2021/04/12 13:18:13;;;;;;;3.13;0.70;;;8.60;99.90;;;;;;5057432;28;20546;-79
2021/04/12 13:20:44;;;;;;;1.00;0.90;;;9.40;99.90;;;;;;5057894;28;20211;-81
2021/04/12 13:23:22;;;;;;;0.73;0.70;;;9.90;99.90;;;;;;5057873;28;20230;-81
2021/04/12 13:25:51;;;;;;;0.93;0.70;;;10.30;99.90;;;;;;5057331;28;20282;-79
2021/04/12 13:28:21;;;;;;;0.70;0.70;;;10.60;99.90;;;;;;5056477;28;20198;-79
2021/04/12 13:30:59;;;;;;;0.83;0.57;;;10.20;99.90;;;;;;5057271;28;20194;-79
2021/04/12 13:33:30;;;;;;;1.50;0.70;;;10.20;99.90;;;;;;5057518;28;20587;-80
2021/04/12 13:36:03;;;;;;;1.03;0.60;;;10.30;99.90;;;;;;5056934;28;20276;-80
2021/04/12 13:38:33;;;;;;;0.50;0.30;;;10.10;99.90;;;;;;5056331;28;20210;-80
2021/04/12 13:41:07;;;;;;;0.53;0.33;;;10.60;99.90;;;;;;5042188;28;20210;-80
2021/04/12 13:43:35;;;;;;;1.87;0.50;;;10.90;99.90;;;;;;5041852;28;20235;-80
2021/04/12 13:46:16;;;;;;;0.67;0.50;;;10.40;99.90;;;;;;5055727;28;20207;-80
2021/04/12 13:48:48;;;;;;;1.57;0.90;;;10.20;99.90;;;;;;5045380;28;20206;-80
2021/04/12 13:51:26;;;;;;;2.57;0.70;;;10.40;99.90;;;;;;5054109;28;20254;-80
2021/04/12 13:53:56;;;;;;;0.67;0.67;;;10.30;99.90;;;;;;5054396;28;20668;-80
2021/04/12 13:56:27;;;;;;;1.73;0.90;;;10.20;99.90;;;;;;5053188;28;20225;-79
2021/04/12 13:59:03;;;;;;;1.47;0.70;;;10.00;99.90;;;;;;5033924;28;20563;-79
2021/04/12 14:01:40;;;;;;;1.57;0.70;;;10.20;99.90;;;;;;5045736;28;20674;-81
2021/04/12 14:04:11;;;;;;;0.97;0.77;;;10.70;99.90;;;;;;5045265;28;20225;-81
2021/04/12 14:06:45;;;;;;;1.90;0.80;;;10.60;99.90;;;;;;5056442;28;20213;-80
2021/04/12 14:09:17;;;;;;;0.87;0.60;;;10.10;99.90;;;;;;5056676;28;20694;-79
2021/04/12 14:11:52;;;;;;;4.80;0.97;;;9.90;99.90;;;;;;5056251;28;20258;-80
2021/04/12 14:14:22;;;;;;;1.83;0.63;;;9.90;99.90;;;;;;5055370;28;20199;-80
2021/04/12 14:16:55;;;;;;;0.53;0.47;;;10.20;99.90;;;;;;5056219;28;20227;-80
2021/04/12 14:19:25;;;;;;;1.30;0.40;;;10.70;99.90;;;;;;5052534;28;20237;-80
2021/04/12 14:22:00;;;;;;;1.00;0.90;;;10.60;99.90;;;;;;5054126;28;20310;-79
2021/04/12 14:24:30;;;;;;;0.93;0.53;;;10.40;99.90;;;;;;5048722;28;20248;-80
2021/04/12 14:27:04;;;;;;;1.03;0.70;;;10.10;99.90;;;;;;5050261;28;20565;-80
2021/04/12 14:29:35;;;;;;;2.47;0.97;;;10.40;99.90;;;;;;5053322;28;20677;-80
2021/04/12 14:32:04;;;;;;;1.40;1.10;;;10.30;99.90;;;;;;5049371;28;20222;-80
2021/04/12 14:34:35;;;;;;;2.20;0.93;;;10.50;99.90;;;;;;5053506;28;20253;-80
2021/04/12 14:37:05;;;;;;;0.97;0.80;;;10.50;99.90;;;;;;5049369;28;20675;-80